sensor_id;sensor_type;location;lat;lon;timestamp;pressure;altitude;pressure_sealevel;temperature
61977;BMP280;45905;50.570;10.428;2023-04-07T00:00:44;97945.81;;;3.07
61977;BMP280;45905;50.570;10.428;2023-04-07T00:03:12;97956.19;;;3.03
61977;BMP280;45905;50.570;10.428;2023-04-07T00:05:39;97951.47;;;2.98
61977;BMP280;45905;50.570;10.428;2023-04-07T00:08:06;97945.81;;;2.96
61977;BMP280;45905;50.570;10.428;2023-04-07T00:10:33;97955.22;;;2.93
61977;BMP280;45905;50.570;10.428;2023-04-07T00:13:01;97952.94;;;2.90
61977;BMP280;45905;50.570;10.428;2023-04-07T00:15:28;97963.97;;;2.87
61977;BMP280;45905;50.570;10.428;2023-04-07T00:17:55;97950.78;;;2.85
61977;BMP280;45905;50.570;10.428;2023-04-07T00:20:23;97955.19;;;2.82
61977;BMP280;45905;50.570;10.428;2023-04-07T00:22:50;97947.91;;;2.79
61977;BMP280;45905;50.570;10.428;2023-04-07T00:25:17;97951.41;;;2.77
61977;BMP280;45905;50.570;10.428;2023-04-07T00:27:44;97945.81;;;2.73
61977;BMP280;45905;50.570;10.428;2023-04-07T00:30:11;97950.25;;;2.70
61977;BMP280;45905;50.570;10.428;2023-04-07T00:32:39;97944.66;;;2.66
61977;BMP280;45905;50.570;10.428;2023-04-07T00:35:06;97951.56;;;2.63
61977;BMP280;45905;50.570;10.428;2023-04-07T00:37:34;97950.00;;;2.62
61977;BMP280;45905;50.570;10.428;2023-04-07T00:40:01;97944.41;;;2.59
61977;BMP280;45905;50.570;10.428;2023-04-07T00:42:28;97941.28;;;2.55
61977;BMP280;45905;50.570;10.428;2023-04-07T00:44:55;97939.94;;;2.51
61977;BMP280;45905;50.570;10.428;2023-04-07T00:47:22;97946.03;;;2.47
61977;BMP280;45905;50.570;10.428;2023-04-07T00:49:49;97950.31;;;2.46
61977;BMP280;45905;50.570;10.428;2023-04-07T00:52:18;97947.06;;;2.45
61977;BMP280;45905;50.570;10.428;2023-04-07T00:54:46;97944.66;;;2.44
61977;BMP280;45905;50.570;10.428;2023-04-07T00:57:13;97936.47;;;2.42
61977;BMP280;45905;50.570;10.428;2023-04-07T00:59:41;97935.19;;;2.36
61977;BMP280;45905;50.570;10.428;2023-04-07T01:02:49;97936.28;;;2.32
61977;BMP280;45905;50.570;10.428;2023-04-07T01:05:49;97930.22;;;2.24
61977;BMP280;45905;50.570;10.428;2023-04-07T01:11:29;97918.97;;;2.19
61977;BMP280;45905;50.570;10.428;2023-04-07T01:13:59;97922.44;;;2.16
61977;BMP280;45905;50.570;10.428;2023-04-07T01:16:56;97925.16;;;2.13
61977;BMP280;45905;50.570;10.428;2023-04-07T01:22:17;97923.78;;;2.09
61977;BMP280;45905;50.570;10.428;2023-04-07T01:27:59;97916.91;;;2.01
61977;BMP280;45905;50.570;10.428;2023-04-07T01:30:39;97924.41;;;2.01
61977;BMP280;45905;50.570;10.428;2023-04-07T01:33:10;97916.91;;;2.01
61977;BMP280;45905;50.570;10.428;2023-04-07T01:35:40;97917.00;;;1.99
61977;BMP280;45905;50.570;10.428;2023-04-07T01:38:09;97913.69;;;1.99
61977;BMP280;45905;50.570;10.428;2023-04-07T01:40:39;97916.41;;;1.96
61977;BMP280;45905;50.570;10.428;2023-04-07T01:43:08;97913.19;;;1.94
61977;BMP280;45905;50.570;10.428;2023-04-07T01:45:37;97913.31;;;1.92
61977;BMP280;45905;50.570;10.428;2023-04-07T01:48:05;97908.03;;;1.85
61977;BMP280;45905;50.570;10.428;2023-04-07T01:50:33;97910.50;;;1.85
61977;BMP280;45905;50.570;10.428;2023-04-07T01:53:03;97914.53;;;1.87
61977;BMP280;45905;50.570;10.428;2023-04-07T01:55:31;97918.00;;;1.85
61977;BMP280;45905;50.570;10.428;2023-04-07T01:58:06;97921.53;;;1.82
61977;BMP280;45905;50.570;10.428;2023-04-07T02:00:36;97926.91;;;1.76
61977;BMP280;45905;50.570;10.428;2023-04-07T02:03:15;97921.91;;;1.76
61977;BMP280;45905;50.570;10.428;2023-04-07T02:05:55;97917.81;;;1.75
61977;BMP280;45905;50.570;10.428;2023-04-07T02:08:29;97917.94;;;1.74
61977;BMP280;45905;50.570;10.428;2023-04-07T02:11:00;97920.31;;;1.75
61977;BMP280;45905;50.570;10.428;2023-04-07T02:13:34;97908.63;;;1.76
61977;BMP280;45905;50.570;10.428;2023-04-07T02:16:05;97924.63;;;1.73
61977;BMP280;45905;50.570;10.428;2023-04-07T02:18:33;97912.25;;;1.72
61977;BMP280;45905;50.570;10.428;2023-04-07T02:21:03;97913.06;;;1.72
61977;BMP280;45905;50.570;10.428;2023-04-07T02:23:34;97905.75;;;1.70
61977;BMP280;45905;50.570;10.428;2023-04-07T02:26:02;97918.25;;;1.70
61977;BMP280;45905;50.570;10.428;2023-04-07T02:28:29;97906.66;;;1.69
61977;BMP280;45905;50.570;10.428;2023-04-07T02:30:56;97909.38;;;1.66
61977;BMP280;45905;50.570;10.428;2023-04-07T02:33:23;97910.47;;;1.62
61977;BMP280;45905;50.570;10.428;2023-04-07T02:35:51;97912.84;;;1.63
61977;BMP280;45905;50.570;10.428;2023-04-07T02:38:18;97902.97;;;1.62
61977;BMP280;45905;50.570;10.428;2023-04-07T02:40:45;97910.38;;;1.63
61977;BMP280;45905;50.570;10.428;2023-04-07T02:43:13;97900.38;;;1.63
61977;BMP280;45905;50.570;10.428;2023-04-07T02:45:40;97896.97;;;1.64
61977;BMP280;45905;50.570;10.428;2023-04-07T02:48:07;97900.06;;;1.68
61977;BMP280;45905;50.570;10.428;2023-04-07T02:50:35;97899.16;;;1.69
61977;BMP280;45905;50.570;10.428;2023-04-07T02:53:02;97900.06;;;1.68
61977;BMP280;45905;50.570;10.428;2023-04-07T02:55:30;97904.06;;;1.70
61977;BMP280;45905;50.570;10.428;2023-04-07T02:57:57;97893.97;;;1.71
61977;BMP280;45905;50.570;10.428;2023-04-07T03:00:37;97894.69;;;1.73
61977;BMP280;45905;50.570;10.428;2023-04-07T03:03:09;97901.28;;;1.74
61977;BMP280;45905;50.570;10.428;2023-04-07T03:05:39;97889.88;;;1.71
61977;BMP280;45905;50.570;10.428;2023-04-07T03:08:08;97894.97;;;1.69
61977;BMP280;45905;50.570;10.428;2023-04-07T03:10:38;97886.69;;;1.69
61977;BMP280;45905;50.570;10.428;2023-04-07T03:13:07;97892.38;;;1.71
61977;BMP280;45905;50.570;10.428;2023-04-07T03:15:35;97888.78;;;1.74
61977;BMP280;45905;50.570;10.428;2023-04-07T03:18:02;97892.84;;;1.75
61977;BMP280;45905;50.570;10.428;2023-04-07T03:20:30;97888.78;;;1.74
61977;BMP280;45905;50.570;10.428;2023-04-07T03:23:02;97884.47;;;1.76
61977;BMP280;45905;50.570;10.428;2023-04-07T03:25:29;97888.06;;;1.72
61977;BMP280;45905;50.570;10.428;2023-04-07T03:27:57;97884.88;;;1.71
61977;BMP280;45905;50.570;10.428;2023-04-07T03:30:28;97884.09;;;1.70
61977;BMP280;45905;50.570;10.428;2023-04-07T03:32:55;97879.78;;;1.72
61977;BMP280;45905;50.570;10.428;2023-04-07T03:35:22;97886.28;;;1.74
61977;BMP280;45905;50.570;10.428;2023-04-07T03:37:50;97881.97;;;1.76
61977;BMP280;45905;50.570;10.428;2023-04-07T03:40:17;97875.06;;;1.80
61977;BMP280;45905;50.570;10.428;2023-04-07T03:42:45;97882.47;;;1.81
61977;BMP280;45905;50.570;10.428;2023-04-07T03:45:13;97878.06;;;1.85
61977;BMP280;45905;50.570;10.428;2023-04-07T03:47:45;97875.69;;;1.83
61977;BMP280;45905;50.570;10.428;2023-04-07T03:50:13;97874.66;;;1.86
61977;BMP280;45905;50.570;10.428;2023-04-07T03:52:58;97876.88;;;1.78
61977;BMP280;45905;50.570;10.428;2023-04-07T03:55:29;97877.56;;;1.80
61977;BMP280;45905;50.570;10.428;2023-04-07T03:58:02;97870.19;;;1.78
61977;BMP280;45905;50.570;10.428;2023-04-07T04:00:33;97873.28;;;1.82
61977;BMP280;45905;50.570;10.428;2023-04-07T04:03:09;97871.47;;;1.84
61977;BMP280;45905;50.570;10.428;2023-04-07T04:05:44;97876.34;;;1.85
61977;BMP280;45905;50.570;10.428;2023-04-07T04:08:17;97874.66;;;1.86
61977;BMP280;45905;50.570;10.428;2023-04-07T04:10:44;97880.34;;;1.88
61977;BMP280;45905;50.570;10.428;2023-04-07T04:13:11;97878.84;;;1.85
61977;BMP280;45905;50.570;10.428;2023-04-07T04:15:40;97887.47;;;1.81
61977;BMP280;45905;50.570;10.428;2023-04-07T04:18:12;97885.16;;;1.78
61977;BMP280;45905;50.570;10.428;2023-04-07T04:20:39;97880.25;;;1.77
61977;BMP280;45905;50.570;10.428;2023-04-07T04:23:07;97882.47;;;1.81
61977;BMP280;45905;50.570;10.428;2023-04-07T04:25:35;97878.84;;;1.85
61977;BMP280;45905;50.570;10.428;2023-04-07T04:28:07;97872.06;;;1.87
61977;BMP280;45905;50.570;10.428;2023-04-07T04:30:34;97867.88;;;1.88
61977;BMP280;45905;50.570;10.428;2023-04-07T04:33:03;97875.25;;;1.89
61977;BMP280;45905;50.570;10.428;2023-04-07T04:35:40;97875.06;;;1.92
61977;BMP280;45905;50.570;10.428;2023-04-07T04:38:11;97879.81;;;1.95
61977;BMP280;45905;50.570;10.428;2023-04-07T04:40:43;97869.94;;;1.93
61977;BMP280;45905;50.570;10.428;2023-04-07T04:43:12;97875.16;;;1.90
61977;BMP280;45905;50.570;10.428;2023-04-07T04:45:40;97875.16;;;1.90
61977;BMP280;45905;50.570;10.428;2023-04-07T04:48:10;97875.25;;;1.89
61977;BMP280;45905;50.570;10.428;2023-04-07T04:50:38;97880.44;;;1.86
61977;BMP280;45905;50.570;10.428;2023-04-07T04:53:09;97874.56;;;1.87
61977;BMP280;45905;50.570;10.428;2023-04-07T04:55:44;97876.06;;;1.90
61977;BMP280;45905;50.570;10.428;2023-04-07T04:58:19;97871.84;;;1.90
61977;BMP280;45905;50.570;10.428;2023-04-07T05:00:53;97869.94;;;1.93
61977;BMP280;45905;50.570;10.428;2023-04-07T05:03:29;97866.44;;;1.96
61977;BMP280;45905;50.570;10.428;2023-04-07T05:06:01;97869.63;;;1.98
61977;BMP280;45905;50.570;10.428;2023-04-07T05:08:28;97877.84;;;2.00
61977;BMP280;45905;50.570;10.428;2023-04-07T05:10:56;97874.81;;;1.95
61977;BMP280;45905;50.570;10.428;2023-04-07T05:13:26;97871.44;;;1.96
61977;BMP280;45905;50.570;10.428;2023-04-07T05:15:59;97878.63;;;2.00
61977;BMP280;45905;50.570;10.428;2023-04-07T05:18:28;97872.59;;;2.03
61977;BMP280;45905;50.570;10.428;2023-04-07T05:20:57;97871.69;;;2.04
61977;BMP280;45905;50.570;10.428;2023-04-07T05:23:26;97874.19;;;2.04
61977;BMP280;45905;50.570;10.428;2023-04-07T05:25:54;97877.41;;;2.06
61977;BMP280;45905;50.570;10.428;2023-04-07T05:28:22;97877.19;;;2.09
61977;BMP280;45905;50.570;10.428;2023-04-07T05:30:53;97879.38;;;2.13
61977;BMP280;45905;50.570;10.428;2023-04-07T05:33:25;97874.97;;;2.16
61977;BMP280;45905;50.570;10.428;2023-04-07T05:35:53;97876.34;;;2.20
61977;BMP280;45905;50.570;10.428;2023-04-07T05:38:21;97883.16;;;2.18
61977;BMP280;45905;50.570;10.428;2023-04-07T05:40:49;97873.97;;;2.19
61977;BMP280;45905;50.570;10.428;2023-04-07T05:43:24;97879.75;;;2.19
61977;BMP280;45905;50.570;10.428;2023-04-07T05:45:51;97875.25;;;2.24
61977;BMP280;45905;50.570;10.428;2023-04-07T05:48:20;97875.84;;;2.28
61977;BMP280;45905;50.570;10.428;2023-04-07T05:50:48;97875.50;;;2.32
61977;BMP280;45905;50.570;10.428;2023-04-07T05:53:17;97883.69;;;2.34
61977;BMP280;45905;50.570;10.428;2023-04-07T05:55:45;97873.47;;;2.37
61977;BMP280;45905;50.570;10.428;2023-04-07T05:58:21;97876.47;;;2.42
61977;BMP280;45905;50.570;10.428;2023-04-07T06:00:52;97875.47;;;2.44
61977;BMP280;45905;50.570;10.428;2023-04-07T06:03:19;97882.63;;;2.48
61977;BMP280;45905;50.570;10.428;2023-04-07T06:05:57;97883.13;;;2.53
61977;BMP280;45905;50.570;10.428;2023-04-07T06:08:25;97878.59;;;2.58
61977;BMP280;45905;50.570;10.428;2023-04-07T06:10:52;97877.34;;;2.64
61977;BMP280;45905;50.570;10.428;2023-04-07T06:13:19;97870.09;;;2.71
61977;BMP280;45905;50.570;10.428;2023-04-07T06:15:46;97865.69;;;2.75
61977;BMP280;45905;50.570;10.428;2023-04-07T06:18:13;97873.78;;;2.78
61977;BMP280;45905;50.570;10.428;2023-04-07T06:20:41;97876.72;;;2.83
61977;BMP280;45905;50.570;10.428;2023-04-07T06:23:08;97871.28;;;2.89
61977;BMP280;45905;50.570;10.428;2023-04-07T06:25:35;97875.75;;;2.96
61977;BMP280;45905;50.570;10.428;2023-04-07T06:28:02;97878.59;;;3.03
61977;BMP280;45905;50.570;10.428;2023-04-07T06:30:29;97874.84;;;3.08
61977;BMP280;45905;50.570;10.428;2023-04-07T06:32:56;97875.22;;;3.14
61977;BMP280;45905;50.570;10.428;2023-04-07T06:35:24;97873.97;;;3.20
61977;BMP280;45905;50.570;10.428;2023-04-07T06:37:53;97873.53;;;3.25
61977;BMP280;45905;50.570;10.428;2023-04-07T06:40:20;97866.50;;;3.30
61977;BMP280;45905;50.570;10.428;2023-04-07T06:42:47;97876.16;;;3.35
61977;BMP280;45905;50.570;10.428;2023-04-07T06:45:22;97870.03;;;3.39
61977;BMP280;45905;50.570;10.428;2023-04-07T06:47:49;97869.00;;;3.41
61977;BMP280;45905;50.570;10.428;2023-04-07T06:50:17;97876.84;;;3.47
61977;BMP280;45905;50.570;10.428;2023-04-07T06:52:47;97879.13;;;3.50
61977;BMP280;45905;50.570;10.428;2023-04-07T06:55:14;97881.28;;;3.55
61977;BMP280;45905;50.570;10.428;2023-04-07T06:57:41;97870.81;;;3.61
61977;BMP280;45905;50.570;10.428;2023-04-07T07:00:09;97874.59;;;3.66
61977;BMP280;45905;50.570;10.428;2023-04-07T07:02:36;97876.72;;;3.70
61977;BMP280;45905;50.570;10.428;2023-04-07T07:05:04;97877.22;;;3.75
61977;BMP280;45905;50.570;10.428;2023-04-07T07:07:32;97870.13;;;3.80
61977;BMP280;45905;50.570;10.428;2023-04-07T07:10:00;97868.09;;;3.85
61977;BMP280;45905;50.570;10.428;2023-04-07T07:12:27;97875.94;;;3.91
61977;BMP280;45905;50.570;10.428;2023-04-07T07:14:54;97868.84;;;3.96
61977;BMP280;45905;50.570;10.428;2023-04-07T07:17:21;97870.22;;;4.00
61977;BMP280;45905;50.570;10.428;2023-04-07T07:19:48;97872.94;;;4.08
61977;BMP280;45905;50.570;10.428;2023-04-07T07:22:16;97875.09;;;4.12
61977;BMP280;45905;50.570;10.428;2023-04-07T07:24:43;97867.13;;;4.18
61977;BMP280;45905;50.570;10.428;2023-04-07T07:27:10;97874.84;;;4.26
61977;BMP280;45905;50.570;10.428;2023-04-07T07:29:37;97877.66;;;4.32
61977;BMP280;45905;50.570;10.428;2023-04-07T07:32:05;97873.91;;;4.38
61977;BMP280;45905;50.570;10.428;2023-04-07T07:34:32;97872.25;;;4.47
61977;BMP280;45905;50.570;10.428;2023-04-07T07:36:59;97873.13;;;4.57
61977;BMP280;45905;50.570;10.428;2023-04-07T07:39:26;97878.22;;;4.66
61977;BMP280;45905;50.570;10.428;2023-04-07T07:41:54;97871.69;;;4.75
61977;BMP280;45905;50.570;10.428;2023-04-07T07:44:21;97865.03;;;4.84
61977;BMP280;45905;50.570;10.428;2023-04-07T07:46:49;97878.44;;;4.94
61977;BMP280;45905;50.570;10.428;2023-04-07T07:49:17;97877.47;;;5.06
61977;BMP280;45905;50.570;10.428;2023-04-07T07:51:44;97872.25;;;5.18
61977;BMP280;45905;50.570;10.428;2023-04-07T07:54:12;97869.44;;;5.32
61977;BMP280;45905;50.570;10.428;2023-04-07T07:56:39;97869.53;;;5.50
61977;BMP280;45905;50.570;10.428;2023-04-07T07:59:06;97866.41;;;5.57
61977;BMP280;45905;50.570;10.428;2023-04-07T08:01:34;97872.03;;;5.70
61977;BMP280;45905;50.570;10.428;2023-04-07T08:04:01;97864.56;;;5.89
61977;BMP280;45905;50.570;10.428;2023-04-07T08:06:28;97867.53;;;6.03
61977;BMP280;45905;50.570;10.428;2023-04-07T08:08:57;97871.38;;;6.16
61977;BMP280;45905;50.570;10.428;2023-04-07T08:11:24;97867.16;;;6.26
61977;BMP280;45905;50.570;10.428;2023-04-07T08:13:51;97864.53;;;6.36
61977;BMP280;45905;50.570;10.428;2023-04-07T08:16:19;97877.66;;;6.49
61977;BMP280;45905;50.570;10.428;2023-04-07T08:18:48;97858.47;;;6.57
61977;BMP280;45905;50.570;10.428;2023-04-07T08:21:15;97854.34;;;6.66
61977;BMP280;45905;50.570;10.428;2023-04-07T08:23:43;97861.66;;;6.78
61977;BMP280;45905;50.570;10.428;2023-04-07T08:26:10;97857.41;;;6.87
61977;BMP280;45905;50.570;10.428;2023-04-07T08:28:37;97861.63;;;6.96
61977;BMP280;45905;50.570;10.428;2023-04-07T08:31:06;97863.47;;;7.04
61977;BMP280;45905;50.570;10.428;2023-04-07T08:33:33;97864.25;;;7.13
61977;BMP280;45905;50.570;10.428;2023-04-07T08:36:00;97850.72;;;7.23
61977;BMP280;45905;50.570;10.428;2023-04-07T08:38:27;97856.66;;;7.32
61977;BMP280;45905;50.570;10.428;2023-04-07T08:41:02;97866.59;;;7.43
61977;BMP280;45905;50.570;10.428;2023-04-07T08:43:31;97862.72;;;7.48
61977;BMP280;45905;50.570;10.428;2023-04-07T08:46:01;97853.31;;;7.50
61977;BMP280;45905;50.570;10.428;2023-04-07T08:48:31;97854.47;;;7.55
61977;BMP280;45905;50.570;10.428;2023-04-07T08:51:06;97853.50;;;7.65
61977;BMP280;45905;50.570;10.428;2023-04-07T08:53:48;97858.88;;;7.80
61977;BMP280;45905;50.570;10.428;2023-04-07T08:56:19;97862.44;;;7.86
61977;BMP280;45905;50.570;10.428;2023-04-07T08:58:51;97849.94;;;7.94
61977;BMP280;45905;50.570;10.428;2023-04-07T09:01:19;97857.63;;;8.02
61977;BMP280;45905;50.570;10.428;2023-04-07T09:03:48;97860.38;;;8.08
61977;BMP280;45905;50.570;10.428;2023-04-07T09:06:16;97860.88;;;8.12
61977;BMP280;45905;50.570;10.428;2023-04-07T09:08:43;97860.97;;;8.19
61977;BMP280;45905;50.570;10.428;2023-04-07T09:11:11;97862.25;;;8.23
61977;BMP280;45905;50.570;10.428;2023-04-07T09:13:38;97855.34;;;8.25
61977;BMP280;45905;50.570;10.428;2023-04-07T09:16:05;97860.91;;;8.29
61977;BMP280;45905;50.570;10.428;2023-04-07T09:18:33;97853.47;;;8.27
61977;BMP280;45905;50.570;10.428;2023-04-07T09:21:03;97844.97;;;8.28
61977;BMP280;45905;50.570;10.428;2023-04-07T09:23:34;97849.16;;;8.37
61977;BMP280;45905;50.570;10.428;2023-04-07T09:29:08;97845.06;;;8.70
61977;BMP280;45905;50.570;10.428;2023-04-07T09:31:49;97839.50;;;8.84
61977;BMP280;45905;50.570;10.428;2023-04-07T09:34:34;97846.03;;;8.94
61977;BMP280;45905;50.570;10.428;2023-04-07T09:37:05;97842.22;;;9.07
61977;BMP280;45905;50.570;10.428;2023-04-07T09:39:33;97836.56;;;9.13
61977;BMP280;45905;50.570;10.428;2023-04-07T09:42:05;97841.03;;;9.19
61977;BMP280;45905;50.570;10.428;2023-04-07T09:44:39;97838.84;;;9.24
61977;BMP280;45905;50.570;10.428;2023-04-07T09:47:07;97831.25;;;9.24
61977;BMP280;45905;50.570;10.428;2023-04-07T09:49:52;97826.44;;;9.38
61977;BMP280;45905;50.570;10.428;2023-04-07T09:52:25;97831.75;;;9.52
61977;BMP280;45905;50.570;10.428;2023-04-07T09:54:53;97832.44;;;9.62
61977;BMP280;45905;50.570;10.428;2023-04-07T09:57:22;97825.84;;;9.69
61977;BMP280;45905;50.570;10.428;2023-04-07T09:59:52;97819.22;;;9.75
61977;BMP280;45905;50.570;10.428;2023-04-07T10:02:20;97805.53;;;9.86
61977;BMP280;45905;50.570;10.428;2023-04-07T10:04:49;97811.13;;;9.97
61977;BMP280;45905;50.570;10.428;2023-04-07T10:07:16;97817.78;;;10.06
61977;BMP280;45905;50.570;10.428;2023-04-07T10:09:43;97812.41;;;10.16
61977;BMP280;45905;50.570;10.428;2023-04-07T10:12:11;97804.38;;;10.29
61977;BMP280;45905;50.570;10.428;2023-04-07T10:14:39;97809.63;;;10.50
61977;BMP280;45905;50.570;10.428;2023-04-07T10:17:07;97808.72;;;10.67
61977;BMP280;45905;50.570;10.428;2023-04-07T10:19:35;97803.00;;;10.73
61977;BMP280;45905;50.570;10.428;2023-04-07T10:22:04;97798.25;;;10.78
61977;BMP280;45905;50.570;10.428;2023-04-07T10:24:57;97802.06;;;10.74
61977;BMP280;45905;50.570;10.428;2023-04-07T10:27:37;97798.09;;;10.79
61977;BMP280;45905;50.570;10.428;2023-04-07T10:30:13;97795.22;;;10.98
61977;BMP280;45905;50.570;10.428;2023-04-07T10:32:49;97795.84;;;11.15
61977;BMP280;45905;50.570;10.428;2023-04-07T10:35:18;97793.78;;;11.19
61977;BMP280;45905;50.570;10.428;2023-04-07T10:40:36;97790.25;;;11.51
61977;BMP280;45905;50.570;10.428;2023-04-07T10:43:06;97797.66;;;11.60
61977;BMP280;45905;50.570;10.428;2023-04-07T10:48:24;97798.34;;;11.84
61977;BMP280;45905;50.570;10.428;2023-04-07T10:53:36;97803.78;;;11.81
61977;BMP280;45905;50.570;10.428;2023-04-07T10:56:04;97804.75;;;11.80
61977;BMP280;45905;50.570;10.428;2023-04-07T10:58:32;97795.81;;;11.84
61977;BMP280;45905;50.570;10.428;2023-04-07T11:03:35;97796.53;;;12.08
61977;BMP280;45905;50.570;10.428;2023-04-07T11:08:44;97787.56;;;12.41
61977;BMP280;45905;50.570;10.428;2023-04-07T11:11:33;97788.97;;;12.44
61977;BMP280;45905;50.570;10.428;2023-04-07T11:14:01;97783.50;;;12.55
61977;BMP280;45905;50.570;10.428;2023-04-07T11:16:42;97786.16;;;12.69
61977;BMP280;45905;50.570;10.428;2023-04-07T11:19:09;97779.00;;;12.86
61977;BMP280;45905;50.570;10.428;2023-04-07T11:21:38;97775.94;;;12.91
61977;BMP280;45905;50.570;10.428;2023-04-07T11:24:05;97776.56;;;13.07
61977;BMP280;45905;50.570;10.428;2023-04-07T11:26:40;97774.50;;;13.10
61977;BMP280;45905;50.570;10.428;2023-04-07T11:29:07;97781.03;;;13.05
61977;BMP280;45905;50.570;10.428;2023-04-07T11:31:35;97769.19;;;12.97
61977;BMP280;45905;50.570;10.428;2023-04-07T11:34:04;97764.03;;;13.05
61977;BMP280;45905;50.570;10.428;2023-04-07T11:36:37;97772.38;;;13.14
61977;BMP280;45905;50.570;10.428;2023-04-07T11:39:05;97761.69;;;13.32
61977;BMP280;45905;50.570;10.428;2023-04-07T11:41:48;97765.38;;;13.58
61977;BMP280;45905;50.570;10.428;2023-04-07T11:44:16;97759.50;;;13.72
61977;BMP280;45905;50.570;10.428;2023-04-07T11:46:58;97760.47;;;13.85
61977;BMP280;45905;50.570;10.428;2023-04-07T11:49:27;97764.06;;;13.90
61977;BMP280;45905;50.570;10.428;2023-04-07T11:52:04;97760.06;;;14.16
61977;BMP280;45905;50.570;10.428;2023-04-07T11:54:43;97753.13;;;14.31
61977;BMP280;45905;50.570;10.428;2023-04-07T11:57:13;97748.53;;;14.40
61977;BMP280;45905;50.570;10.428;2023-04-07T11:59:40;97754.91;;;14.50
61977;BMP280;45905;50.570;10.428;2023-04-07T12:02:08;97754.47;;;14.68
61977;BMP280;45905;50.570;10.428;2023-04-07T12:04:36;97757.13;;;14.80
61977;BMP280;45905;50.570;10.428;2023-04-07T12:07:08;97757.97;;;14.87
61977;BMP280;45905;50.570;10.428;2023-04-07T12:09:37;97752.81;;;14.81
61977;BMP280;45905;50.570;10.428;2023-04-07T12:12:06;97755.56;;;14.79
61977;BMP280;45905;50.570;10.428;2023-04-07T12:14:34;97755.63;;;14.86
61977;BMP280;45905;50.570;10.428;2023-04-07T12:17:02;97749.84;;;14.98
61977;BMP280;45905;50.570;10.428;2023-04-07T12:19:31;97751.88;;;15.08
61977;BMP280;45905;50.570;10.428;2023-04-07T12:22:00;97755.72;;;15.25
61977;BMP280;45905;50.570;10.428;2023-04-07T12:24:27;97754.75;;;15.26
61977;BMP280;45905;50.570;10.428;2023-04-07T12:26:55;97760.47;;;15.28
61977;BMP280;45905;50.570;10.428;2023-04-07T12:29:22;97762.25;;;15.34
61977;BMP280;45905;50.570;10.428;2023-04-07T12:31:49;97757.84;;;15.48
61977;BMP280;45905;50.570;10.428;2023-04-07T12:34:17;97754.16;;;15.57
61977;BMP280;45905;50.570;10.428;2023-04-07T12:36:45;97751.84;;;15.68
61977;BMP280;45905;50.570;10.428;2023-04-07T12:39:13;97744.00;;;15.70
61977;BMP280;45905;50.570;10.428;2023-04-07T12:41:41;97746.97;;;15.73
61977;BMP280;45905;50.570;10.428;2023-04-07T12:44:08;97754.09;;;15.84
61977;BMP280;45905;50.570;10.428;2023-04-07T12:46:36;97739.94;;;15.88
61977;BMP280;45905;50.570;10.428;2023-04-07T12:49:03;97742.69;;;15.86
61977;BMP280;45905;50.570;10.428;2023-04-07T12:51:30;97735.38;;;15.77
61977;BMP280;45905;50.570;10.428;2023-04-07T12:54:00;97733.75;;;15.64
61977;BMP280;45905;50.570;10.428;2023-04-07T12:56:28;97739.66;;;15.64
61977;BMP280;45905;50.570;10.428;2023-04-07T12:58:55;97744.78;;;15.70
61977;BMP280;45905;50.570;10.428;2023-04-07T13:01:23;97735.78;;;15.81
61977;BMP280;45905;50.570;10.428;2023-04-07T13:03:50;97742.31;;;15.89
61977;BMP280;45905;50.570;10.428;2023-04-07T13:06:18;97735.81;;;15.93
61977;BMP280;45905;50.570;10.428;2023-04-07T13:08:46;97735.72;;;16.07
61977;BMP280;45905;50.570;10.428;2023-04-07T13:11:13;97739.09;;;16.21
61977;BMP280;45905;50.570;10.428;2023-04-07T13:13:40;97741.88;;;16.25
61977;BMP280;45905;50.570;10.428;2023-04-07T13:16:07;97746.00;;;16.33
61977;BMP280;45905;50.570;10.428;2023-04-07T13:18:35;97736.75;;;16.32
61977;BMP280;45905;50.570;10.428;2023-04-07T13:21:02;97741.09;;;16.38
61977;BMP280;45905;50.570;10.428;2023-04-07T13:23:33;97747.22;;;16.43
61977;BMP280;45905;50.570;10.428;2023-04-07T13:26:08;97730.28;;;16.48
61977;BMP280;45905;50.570;10.428;2023-04-07T13:28:36;97730.28;;;16.55
61977;BMP280;45905;50.570;10.428;2023-04-07T13:31:04;97728.34;;;16.63
61977;BMP280;45905;50.570;10.428;2023-04-07T13:33:31;97731.50;;;16.71
61977;BMP280;45905;50.570;10.428;2023-04-07T13:35:58;97738.78;;;16.80
61977;BMP280;45905;50.570;10.428;2023-04-07T13:38:26;97738.38;;;16.83
61977;BMP280;45905;50.570;10.428;2023-04-07T13:40:53;97728.94;;;16.84
61977;BMP280;45905;50.570;10.428;2023-04-07T13:43:21;97732.09;;;16.80
61977;BMP280;45905;50.570;10.428;2023-04-07T13:45:48;97724.63;;;16.72
61977;BMP280;45905;50.570;10.428;2023-04-07T13:48:16;97730.91;;;16.76
61977;BMP280;45905;50.570;10.428;2023-04-07T13:50:43;97728.16;;;16.77
61977;BMP280;45905;50.570;10.428;2023-04-07T13:53:11;97727.34;;;16.83
61977;BMP280;45905;50.570;10.428;2023-04-07T13:55:38;97733.25;;;16.90
61977;BMP280;45905;50.570;10.428;2023-04-07T13:58:06;97727.41;;;16.96
61977;BMP280;45905;50.570;10.428;2023-04-07T14:00:33;97731.31;;;17.04
61977;BMP280;45905;50.570;10.428;2023-04-07T14:03:01;97729.91;;;17.08
61977;BMP280;45905;50.570;10.428;2023-04-07T14:05:30;97723.44;;;17.12
61977;BMP280;45905;50.570;10.428;2023-04-07T14:07:57;97720.66;;;17.20
61977;BMP280;45905;50.570;10.428;2023-04-07T14:10:24;97725.78;;;17.20
61977;BMP280;45905;50.570;10.428;2023-04-07T14:12:52;97737.63;;;16.96
61977;BMP280;45905;50.570;10.428;2023-04-07T14:15:19;97729.34;;;16.62
61977;BMP280;45905;50.570;10.428;2023-04-07T14:17:47;97731.31;;;16.54
61977;BMP280;45905;50.570;10.428;2023-04-07T14:20:14;97731.50;;;16.59
61977;BMP280;45905;50.570;10.428;2023-04-07T14:22:41;97728.94;;;16.59
61977;BMP280;45905;50.570;10.428;2023-04-07T14:25:09;97727.34;;;16.58
61977;BMP280;45905;50.570;10.428;2023-04-07T14:27:37;97729.31;;;16.49
61977;BMP280;45905;50.570;10.428;2023-04-07T14:30:05;97739.06;;;16.02
61977;BMP280;45905;50.570;10.428;2023-04-07T14:32:32;97735.03;;;15.86
61977;BMP280;45905;50.570;10.428;2023-04-07T14:35:00;97738.88;;;15.70
61977;BMP280;45905;50.570;10.428;2023-04-07T14:37:28;97737.91;;;15.71
61977;BMP280;45905;50.570;10.428;2023-04-07T14:39:55;97745.94;;;15.68
61977;BMP280;45905;50.570;10.428;2023-04-07T14:42:26;97742.03;;;15.72